LGBLLATI

Guest
Details From LGBL - NEA ANCHIALOS
To LATI - Tirana Rinas
Flight Number -
Tags generated
Created
Modified
Stats Distance 193 nm / 358 km
Max Altitude 18,500 ft / 5,639 m
Waypoints 3
Social Downloads 1
Likes 0
Share VATSIM

Download

Looking for another format? Having issues loading an existing format? Contact us
Advertisement - Login to hide

Notes

Basic altitude profile: - Ascent Rate: 2500ft/min - Ascent Speed: 250kts - Cruise Altitude: 35000ft - Cruise Speed: 420kts - Descent Rate: 1500ft/min - Descent Speed: 250kts Options: - Use NATs: yes - Use PACOTS: yes - Use low airways: yes - Use high airways: yes

Route

LGBL KAS LATI

ID Type Via Altitude Latitude Longitude Leg Dist Tot Dist Heading (true) Name
O LGBL APT - 0 ft / 0 m 39.21949˚ 22.79447˚ - 0 nm - NEA ANCHIALOS
KAS VOR - 18,500 ft / 5,639 m 40.45099˚ 21.27541˚ 101 nm 101 nm 317° / 316° KASTORIA VOR-DME
O LATI APT - 0 ft / 0 m 41.41473˚ 19.72057˚ 91 nm 193 nm 310° / 309° Tirana Rinas

Altitude Profile

Advertisement - Login to hide

Weather


0- 5 10 15 20 25 30 35+ Temperature / ° C

Clouds and Precipitation
Forecast for 2017-12-12 18:00 UTC. Updated an hour ago

Ground ~20,000 ft ~40,000 ft Winds

LGBL

Details ICAO LGBL (VOL)
Name NEA ANCHIALOS
Region Greece
Timezone Europe/Athens (UTC+2.0)
Stats Elevation 83 ft / 25 m (AMSL)
Location 39.219486° 22.794466°
Runways 1
Magnetic Variation 4.464° E

METAR

LGBL 121620Z 29002KT 9999 FEW035 11/07 Q1021

Decode

TAF

Not found

Departure Runways

ID Width Length Bearing (true) Bearing (mag) Surface Threshold Offset Overrun Length
08 148 ft / 45 m 9,033 ft / 2,753 m 81.43° 76.97° Asphalt 0 ft / 0 m 1,020 ft / 311 m
26 148 ft / 45 m 9,033 ft / 2,753 m 261.45° 256.99° Asphalt 0 ft / 0 m 960 ft / 293 m

LATI

Details ICAO LATI (TIA)
Name Tirana Rinas
Region Albania
Timezone Europe/Tirane (UTC+1.0)
Stats Elevation 126 ft / 38 m (AMSL)
Location 41.414732° 19.720569°
Runways 1
Magnetic Variation 4.232° E

METAR

LATI 121620Z 15006KT 9999 BKN050 15/07 Q1020 NOSIG

Decode

TAF

TAF LATI 121100Z 1212/1312 16010KT 9999 SCT040 SCT070 TX18/1212Z TN06/1305Z

Decode

Destination Runways

ID Width Length Bearing (true) Bearing (mag) Surface Threshold Offset Overrun Length
18 148 ft / 45 m 8,984 ft / 2,738 m 174.31° 170.08° Asphalt 500 ft / 152 m 0 ft / 0 m
36 148 ft / 45 m 8,984 ft / 2,738 m 354.31° 350.08° Asphalt 500 ft / 152 m 0 ft / 0 m